^^
Grace C. Lehan Memorial Weather Station Historical Data
Daily Summary for January 19, 2022 Units:  Both    English   Metric
Daily Weekly Monthly Yearly
  High: Low: Average:
Temperature: 47.2 °F /  8.4 °C 19.1 °F /  -7.2 °C 34.2 °F /  1.2 °C
Dew Point: 35.2 °F /  1.8 °C 11.6 °F /  -11.3 °C 26.1 °F /  -3.3 °C
Humidity: 81% 56.7% 72%
Wind Speed: 7.7mph /  12.4km/h - 1.3mph /  2.1km/h
Wind Gust: 23mph /  37km/h - -
Wind- - SSW
Pressure: 30.17 in /  1021.6 hPa 29.88 in /  1011.7 hPa -
Precipitation: 0.00 in /  0 mm    
 
 
Tabular Data for January 19, 2022
Time Temperature Dew Point Pressure Wind Wind Speed Wind Gust Humidity Rainfall Rate (Hourly) solar
00:04 20.5 °F /  -6.4 °C 11.9 °F /  -11.2 °C 30.15in /  1020.9hPa Calm     69% 0.00in /  0mm 0 W/m2
00:09 20.3 °F /  -6.5 °C 11.8 °F /  -11.2 °C 30.16in /  1021.2hPa Calm     69% 0.00in /  0mm 0 W/m2
00:14 20.2 °F /  -6.6 °C 12 °F /  -11.1 °C 30.17in /  1021.6hPa Calm     70% 0.00in /  0mm 0 W/m2
00:19 20.1 °F /  -6.6 °C 11.9 °F /  -11.2 °C 30.17in /  1021.6hPa Calm     69.8% 0.00in /  0mm 0 W/m2
00:24 20.1 °F /  -6.6 °C 11.6 °F /  -11.3 °C 30.17in /  1021.6hPa Calm     69% 0.00in /  0mm 0 W/m2
00:29 20.1 °F /  -6.6 °C 11.6 °F /  -11.3 °C 30.16in /  1021.2hPa Calm     69.3% 0.00in /  0mm 0 W/m2
00:34 20 °F /  -6.7 °C 12 °F /  -11.1 °C 30.16in /  1021.2hPa Calm     70.5% 0.00in /  0mm 0 W/m2
00:39 19.9 °F /  -6.7 °C 12 °F /  -11.1 °C 30.16in /  1021.2hPa Calm     71% 0.00in /  0mm 0 W/m2
00:44 19.8 °F /  -6.8 °C 12 °F /  -11.1 °C 30.15in /  1020.9hPa Calm     71.4% 0.00in /  0mm 0 W/m2
00:49 19.7 °F /  -6.8 °C 12.1 °F /  -11.1 °C 30.15in /  1020.9hPa Calm     72% 0.00in /  0mm 0 W/m2
00:54 19.5 °F /  -6.9 °C 12.1 °F /  -11.1 °C 30.15in /  1020.9hPa Calm     72.2% 0.00in /  0mm 0 W/m2
00:59 19.5 °F /  -6.9 °C 12.2 °F /  -11 °C 30.15in /  1020.9hPa Calm     73% 0.00in /  0mm 0 W/m2
01:04 19.4 °F /  -7 °C 12.1 °F /  -11.1 °C 30.15in /  1020.9hPa Calm     73% 0.00in /  0mm 0 W/m2
01:09 19.3 °F /  -7.1 °C 12.1 °F /  -11.1 °C 30.14in /  1020.5hPa Calm     73.1% 0.00in /  0mm 0 W/m2
01:14 19.2 °F /  -7.1 °C 12.3 °F /  -10.9 °C 30.14in /  1020.5hPa Calm     74% 0.00in /  0mm 0 W/m2
01:19 19.1 °F /  -7.2 °C 12.4 °F /  -10.9 °C 30.14in /  1020.5hPa Calm     74.7% 0.00in /  0mm 0 W/m2
01:24 19.1 °F /  -7.2 °C 12.5 °F /  -10.8 °C 30.14in /  1020.5hPa Calm     75% 0.00in /  0mm 0 W/m2
01:29 19.1 °F /  -7.2 °C 12.8 °F /  -10.7 °C 30.14in /  1020.5hPa Calm     76% 0.00in /  0mm 0 W/m2
01:34 19.2 °F /  -7.1 °C 13.1 °F /  -10.5 °C 30.14in /  1020.5hPa Calm     76.7% 0.00in /  0mm 0 W/m2
01:39 19.2 °F /  -7.1 °C 13.2 °F /  -10.4 °C 30.14in /  1020.5hPa Calm     77% 0.00in /  0mm 0 W/m2
01:44 19.2 °F /  -7.1 °C 13.2 °F /  -10.4 °C 30.14in /  1020.5hPa Calm     77% 0.00in /  0mm 0 W/m2
01:49 19.2 °F /  -7.1 °C 13.2 °F /  -10.4 °C 30.14in /  1020.5hPa Calm     77% 0.00in /  0mm 0 W/m2
01:54 19.2 °F /  -7.1 °C 13.2 °F /  -10.4 °C 30.15in /  1020.9hPa Calm     77% 0.00in /  0mm 0 W/m2
01:59 19.2 °F /  -7.1 °C 13.2 °F /  -10.4 °C 30.15in /  1020.9hPa Calm     77% 0.00in /  0mm 0 W/m2
02:04 19.2 °F /  -7.1 °C 13.4 °F /  -10.3 °C 30.16in /  1021.2hPa Calm     77.8% 0.00in /  0mm 0 W/m2
02:09 19.2 °F /  -7.1 °C 13.5 °F /  -10.3 °C 30.16in /  1021.2hPa Calm     78% 0.00in /  0mm 0 W/m2
02:14 19.2 °F /  -7.1 °C 13.6 °F /  -10.2 °C 30.17in /  1021.6hPa Calm     78.4% 0.00in /  0mm 0 W/m2
02:19 19.2 °F /  -7.1 °C 13.7 °F /  -10.2 °C 30.17in /  1021.6hPa Calm     79% 0.00in /  0mm 0 W/m2
02:24 19.2 °F /  -7.1 °C 13.7 °F /  -10.2 °C 30.17in /  1021.6hPa Calm     79% 0.00in /  0mm 0 W/m2
02:29 19.1 °F /  -7.2 °C 13.7 °F /  -10.2 °C 30.17in /  1021.6hPa Calm     79% 0.00in /  0mm 0 W/m2
02:34 19.1 °F /  -7.2 °C 13.6 °F /  -10.2 °C 30.16in /  1021.2hPa Calm     78.8% 0.00in /  0mm 0 W/m2
02:39 19.2 °F /  -7.1 °C 13.5 °F /  -10.3 °C 30.17in /  1021.6hPa Calm     78% 0.00in /  0mm 0 W/m2
02:44 19.2 °F /  -7.1 °C 13.5 °F /  -10.3 °C 30.17in /  1021.6hPa Calm     78% 0.00in /  0mm 0 W/m2
02:49 19.2 °F /  -7.1 °C 13.5 °F /  -10.3 °C 30.17in /  1021.6hPa Calm     78% 0.00in /  0mm 0 W/m2
02:54 19.3 °F /  -7.1 °C 13.5 °F /  -10.3 °C 30.16in /  1021.2hPa Calm     78% 0.00in /  0mm 0 W/m2
02:58 19.3 °F /  -7.1 °C 13.6 °F /  -10.2 °C 30.17in /  1021.6hPa Calm     78% 0.00in /  0mm 0 W/m2
03:04 19.4 °F /  -7 °C 13.7 °F /  -10.2 °C 30.17in /  1021.6hPa Calm     78% 0.00in /  0mm 0 W/m2
03:09 19.5 °F /  -6.9 °C 13.8 °F /  -10.1 °C 30.16in /  1021.2hPa Calm     78% 0.00in /  0mm 0 W/m2
03:14 19.6 °F /  -6.9 °C 13.8 °F /  -10.1 °C 30.16in /  1021.2hPa Calm     77.7% 0.00in /  0mm 0 W/m2
03:19 19.7 °F /  -6.8 °C 13.7 °F /  -10.2 °C 30.16in /  1021.2hPa Calm     77% 0.00in /  0mm 0 W/m2
03:24 19.7 °F /  -6.8 °C 13.7 °F /  -10.2 °C 30.17in /  1021.6hPa Calm     77% 0.00in /  0mm 0 W/m2
03:29 19.7 °F /  -6.8 °C 13.7 °F /  -10.2 °C 30.17in /  1021.6hPa Calm     77.2% 0.00in /  0mm 0 W/m2
03:34 19.6 °F /  -6.9 °C 13.9 °F /  -10.1 °C 30.16in /  1021.2hPa Calm     78% 0.00in /  0mm 0 W/m2
03:39 19.6 °F /  -6.9 °C 13.9 °F /  -10.1 °C 30.16in /  1021.2hPa Calm     78.2% 0.00in /  0mm 0 W/m2
03:44 19.5 °F /  -6.9 °C 14.1 °F /  -9.9 °C 30.15in /  1020.9hPa Calm     79% 0.00in /  0mm 0 W/m2
03:49 19.5 °F /  -6.9 °C 14.1 °F /  -9.9 °C 30.15in /  1020.9hPa Calm     79% 0.00in /  0mm 0 W/m2
03:54 19.4 °F /  -7 °C 14.3 °F /  -9.8 °C 30.16in /  1021.2hPa Calm     80% 0.00in /  0mm 0 W/m2
03:59 19.4 °F /  -7 °C 14.3 °F /  -9.8 °C 30.15in /  1020.9hPa Calm     80% 0.00in /  0mm 0 W/m2
04:00 19.4 °F /  -7 °C 14.3 °F /  -9.8 °C 30.15in /  1020.9hPa Calm     80% 0.00in /  0mm 0 W/m2
04:09 19.4 °F /  -7 °C 14.3 °F /  -9.8 °C 30.15in /  1020.9hPa Calm     80% 0.00in /  0mm 0 W/m2
04:14 19.5 °F /  -6.9 °C 14.3 °F /  -9.8 °C 30.14in /  1020.5hPa Calm     80% 0.00in /  0mm 0 W/m2
04:19 19.6 °F /  -6.9 °C 14.7 °F /  -9.6 °C 30.14in /  1020.5hPa Calm     80.9% 0.00in /  0mm 0 W/m2
04:24 19.7 °F /  -6.8 °C 14.8 °F /  -9.6 °C 30.15in /  1020.9hPa Calm     81% 0.00in /  0mm 0 W/m2
04:29 19.7 °F /  -6.8 °C 14.9 °F /  -9.5 °C 30.15in /  1020.9hPa Calm     81% 0.00in /  0mm 0 W/m2
04:34 19.9 °F /  -6.7 °C 15 °F /  -9.4 °C 30.14in /  1020.5hPa Calm     81% 0.00in /  0mm 0 W/m2
04:39 20.1 °F /  -6.6 °C 15.2 °F /  -9.3 °C 30.14in /  1020.5hPa Calm     81% 0.00in /  0mm 0 W/m2
04:44 20.2 °F /  -6.6 °C 15.3 °F /  -9.3 °C 30.13in /  1020.2hPa Calm     81% 0.00in /  0mm 0 W/m2
04:49 20.3 °F /  -6.5 °C 15.5 °F /  -9.2 °C 30.13in /  1020.2hPa Calm     81% 0.00in /  0mm 0 W/m2
04:54 20.4 °F /  -6.4 °C 15.5 °F /  -9.2 °C 30.13in /  1020.2hPa Calm     81% 0.00in /  0mm 0 W/m2
04:59 20.5 °F /  -6.4 °C 15.6 °F /  -9.1 °C 30.13in /  1020.2hPa Calm     81% 0.00in /  0mm 0 W/m2
05:04 20.6 °F /  -6.3 °C 15.6 °F /  -9.1 °C 30.13in /  1020.2hPa Calm     80.5% 0.00in /  0mm 0 W/m2
05:09 20.6 °F /  -6.3 °C 15.4 °F /  -9.2 °C 30.13in /  1020.2hPa Calm     80% 0.00in /  0mm 0 W/m2
05:14 20.6 °F /  -6.3 °C 15.5 °F /  -9.2 °C 30.12in /  1019.9hPa Calm     80% 0.00in /  0mm 0 W/m2
05:19 20.7 °F /  -6.3 °C 15.5 °F /  -9.2 °C 30.12in /  1019.9hPa Calm     80% 0.00in /  0mm 0 W/m2
05:24 20.8 °F /  -6.2 °C 15.5 °F /  -9.2 °C 30.12in /  1019.9hPa Calm     79.5% 0.00in /  0mm 0 W/m2
05:29 20.9 °F /  -6.2 °C 15.4 °F /  -9.2 °C 30.11in /  1019.5hPa Calm     79% 0.00in /  0mm 0 W/m2
05:34 21 °F /  -6.1 °C 15.3 °F /  -9.3 °C 30.11in /  1019.5hPa Calm     78.4% 0.00in /  0mm 0 W/m2
05:39 21.1 °F /  -6.1 °C 15.4 °F /  -9.2 °C 30.12in /  1019.9hPa Calm     78.2% 0.00in /  0mm 0 W/m2
05:44 21.2 °F /  -6 °C 15.4 °F /  -9.2 °C 30.12in /  1019.9hPa Calm     78% 0.00in /  0mm 0 W/m2
05:49 21.3 °F /  -5.9 °C 15.5 °F /  -9.2 °C 30.12in /  1019.9hPa Calm     78% 0.00in /  0mm 0 W/m2
05:54 21.4 °F /  -5.9 °C 15.6 °F /  -9.1 °C 30.12in /  1019.9hPa Calm     78% 0.00in /  0mm 0 W/m2
05:59 21.5 °F /  -5.8 °C 15.7 °F /  -9.1 °C 30.12in /  1019.9hPa Calm     78% 0.00in /  0mm 0 W/m2
06:04 21.6 °F /  -5.8 °C 15.8 °F /  -9 °C 30.12in /  1019.9hPa Calm     78% 0.00in /  0mm 0 W/m2
06:09 21.7 °F /  -5.7 °C 15.7 °F /  -9.1 °C 30.12in /  1019.9hPa Calm     77.2% 0.00in /  0mm 0 W/m2
06:14 21.8 °F /  -5.7 °C 15.5 °F /  -9.2 °C 30.12in /  1019.9hPa Calm     76.3% 0.00in /  0mm 0 W/m2
06:19 21.9 °F /  -5.6 °C 15.5 °F /  -9.2 °C 30.12in /  1019.9hPa Calm     76% 0.00in /  0mm 0 W/m2
06:24 22 °F /  -5.6 °C 15.6 °F /  -9.1 °C 30.12in /  1019.9hPa Calm     76% 0.00in /  0mm 0 W/m2
06:29 22.1 °F /  -5.5 °C 15.7 °F /  -9.1 °C 30.12in /  1019.9hPa Calm     76% 0.00in /  0mm 0 W/m2
06:34 22.2 °F /  -5.4 °C 15.8 °F /  -9 °C 30.12in /  1019.9hPa Calm     76% 0.00in /  0mm 0 W/m2
06:39 22.3 °F /  -5.4 °C 15.9 °F /  -8.9 °C 30.12in /  1019.9hPa Calm     76% 0.00in /  0mm 0 W/m2
06:44 22.4 °F /  -5.3 °C 16 °F /  -8.9 °C 30.12in /  1019.9hPa Calm     76% 0.00in /  0mm 0 W/m2
06:49 22.5 °F /  -5.3 °C 16.1 °F /  -8.8 °C 30.12in /  1019.9hPa Calm     76% 0.00in /  0mm 0 W/m2
06:54 22.6 °F /  -5.2 °C 16.2 °F /  -8.8 °C 30.12in /  1019.9hPa Calm     76% 0.00in /  0mm 0 W/m2
06:59 22.8 °F /  -5.1 °C 16.4 °F /  -8.7 °C 30.11in /  1019.5hPa Calm     76% 0.00in /  0mm 0 W/m2
07:04 23.1 °F /  -4.9 °C 16.6 °F /  -8.6 °C 30.11in /  1019.5hPa Calm     75.7% 0.00in /  0mm 0 W/m2
07:09 23.3 °F /  -4.8 °C 16.6 °F /  -8.6 °C 30.11in /  1019.5hPa Calm     75% 0.00in /  0mm 5 W/m2
07:14 23.5 °F /  -4.7 °C 16.7 °F /  -8.5 °C 30.11in /  1019.5hPa Calm     75% 0.00in /  0mm 9 W/m2
07:19 23.6 °F /  -4.7 °C 16.8 °F /  -8.4 °C 30.11in /  1019.5hPa Calm     75% 0.00in /  0mm 16 W/m2
07:24 23.6 °F /  -4.7 °C 17 °F /  -8.3 °C 30.10in /  1019.2hPa Calm     75.3% 0.00in /  0mm 23 W/m2
07:29 23.8 °F /  -4.6 °C 17.3 °F /  -8.2 °C 30.11in /  1019.5hPa Calm   1mph /  1.6km/h 76% 0.00in /  0mm 28 W/m2
07:34 24 °F /  -4.4 °C 17.5 °F /  -8.1 °C 30.10in /  1019.2hPa West 0.5mph /  0.8km/h 2mph /  3.2km/h 76% 0.00in /  0mm 28 W/m2
07:39 24.2 °F /  -4.3 °C 17.7 °F /  -7.9 °C 30.11in /  1019.5hPa West 0.2mph /  0.3km/h 2mph /  3.2km/h 76% 0.00in /  0mm 32 W/m2
07:44 24.4 °F /  -4.2 °C 18.1 °F /  -7.7 °C 30.11in /  1019.5hPa Calm   2mph /  3.2km/h 76.6% 0.00in /  0mm 35 W/m2
07:49 24.6 °F /  -4.1 °C 18.5 °F /  -7.5 °C 30.10in /  1019.2hPa Calm   2mph /  3.2km/h 77% 0.00in /  0mm 47 W/m2
07:54 24.9 °F /  -3.9 °C 18.7 °F /  -7.4 °C 30.11in /  1019.5hPa West 0.1mph /  0.2km/h 2mph /  3.2km/h 77% 0.00in /  0mm 58 W/m2
07:59 25.3 °F /  -3.7 °C 19.4 °F /  -7 °C 30.11in /  1019.5hPa West 0.5mph /  0.8km/h 2mph /  3.2km/h 77.9% 0.00in /  0mm 58 W/m2
08:09 26.1 °F /  -3.3 °C 19.9 °F /  -6.7 °C 30.10in /  1019.2hPa West 0.2mph /  0.3km/h 1mph /  1.6km/h 77% 0.00in /  0mm 58 W/m2
08:14 26.3 °F /  -3.2 °C 20.1 °F /  -6.6 °C 30.10in /  1019.2hPa Calm   1mph /  1.6km/h 77% 0.00in /  0mm 47 W/m2
08:19 26.5 °F /  -3.1 °C 20.3 °F /  -6.5 °C 30.10in /  1019.2hPa Calm   1mph /  1.6km/h 76.9% 0.00in /  0mm 60 W/m2
08:24 26.7 °F /  -2.9 °C 20.2 °F /  -6.6 °C 30.10in /  1019.2hPa Calm   1mph /  1.6km/h 76.1% 0.00in /  0mm 76 W/m2
08:29 26.9 °F /  -2.8 °C 20.7 °F /  -6.3 °C 30.10in /  1019.2hPa Calm   1mph /  1.6km/h 77% 0.00in /  0mm 77 W/m2
08:34 27.1 °F /  -2.7 °C 20.9 °F /  -6.2 °C 30.10in /  1019.2hPa Calm   1mph /  1.6km/h 77.1% 0.00in /  0mm 84 W/m2
08:39 27.3 °F /  -2.6 °C 21.1 °F /  -6.1 °C 30.09in /  1018.8hPa West 0.1mph /  0.2km/h 2mph /  3.2km/h 77.1% 0.00in /  0mm 86 W/m2
08:44 27.6 °F /  -2.4 °C 21.6 °F /  -5.8 °C 30.09in /  1018.8hPa West 0.2mph /  0.3km/h 2mph /  3.2km/h 77.9% 0.00in /  0mm 91 W/m2
08:49 27.9 °F /  -2.3 °C 22 °F /  -5.6 °C 30.09in /  1018.8hPa West 0.4mph /  0.6km/h 2mph /  3.2km/h 78% 0.00in /  0mm 107 W/m2
08:54 28.2 °F /  -2.1 °C 22.2 °F /  -5.4 °C 30.08in /  1018.5hPa West 0.4mph /  0.6km/h 2mph /  3.2km/h 78% 0.00in /  0mm 130 W/m2
08:59 28.5 °F /  -1.9 °C 22.5 °F /  -5.3 °C 30.09in /  1018.8hPa Calm   2mph /  3.2km/h 77.9% 0.00in /  0mm 130 W/m2
09:04 28.8 °F /  -1.8 °C 22.5 °F /  -5.3 °C 30.08in /  1018.5hPa Calm   2mph /  3.2km/h 77% 0.00in /  0mm 102 W/m2
09:09 29.1 °F /  -1.6 °C 22.8 °F /  -5.1 °C 30.08in /  1018.5hPa West 0.1mph /  0.2km/h 1mph /  1.6km/h 77.2% 0.00in /  0mm 107 W/m2
09:14 29.3 °F /  -1.5 °C 23 °F /  -5 °C 30.08in /  1018.5hPa West 0.3mph /  0.5km/h 2mph /  3.2km/h 77% 0.00in /  0mm 109 W/m2
09:19 29.5 °F /  -1.4 °C 23.2 °F /  -4.9 °C 30.08in /  1018.5hPa West 1mph /  1.6km/h 4mph /  6.4km/h 77% 0.00in /  0mm 98 W/m2
09:24 29.7 °F /  -1.3 °C 23.4 °F /  -4.8 °C 30.08in /  1018.5hPa West 0.2mph /  0.3km/h 4mph /  6.4km/h 77% 0.00in /  0mm 95 W/m2
09:29 29.8 °F /  -1.2 °C 23.7 °F /  -4.6 °C 30.08in /  1018.5hPa West 0.8mph /  1.3km/h 4mph /  6.4km/h 77.5% 0.00in /  0mm 88 W/m2
09:34 30 °F /  -1.1 °C 24 °F /  -4.4 °C 30.08in /  1018.5hPa West 0.3mph /  0.5km/h 4mph /  6.4km/h 78% 0.00in /  0mm 93 W/m2
09:39 30.3 °F /  -0.9 °C 24.4 °F /  -4.2 °C 30.07in /  1018.2hPa West 0.1mph /  0.2km/h 2mph /  3.2km/h 78.2% 0.00in /  0mm 102 W/m2
09:44 30.6 °F /  -0.8 °C 24.9 °F /  -3.9 °C 30.07in /  1018.2hPa West 0.2mph /  0.3km/h 2mph /  3.2km/h 79% 0.00in /  0mm 109 W/m2
09:49 31 °F /  -0.6 °C 25.3 °F /  -3.7 °C 30.07in /  1018.2hPa West 0.1mph /  0.2km/h 2mph /  3.2km/h 79% 0.00in /  0mm 116 W/m2
09:54 31.5 °F /  -0.3 °C 25.8 °F /  -3.4 °C 30.07in /  1018.2hPa West 0.3mph /  0.5km/h 2mph /  3.2km/h 79% 0.00in /  0mm 120 W/m2
09:59 32.1 °F /  0.1 °C 26.3 °F /  -3.2 °C 30.07in /  1018.2hPa West 0.3mph /  0.5km/h 2mph /  3.2km/h 79% 0.00in /  0mm 123 W/m2
10:04 32.6 °F /  0.3 °C 26.8 °F /  -2.9 °C 30.06in /  1017.8hPa WSW 1.2mph /  1.9km/h 4mph /  6.4km/h 78.8% 0.00in /  0mm 130 W/m2
10:09 33.2 °F /  0.7 °C 27.1 °F /  -2.7 °C 30.06in /  1017.8hPa WSW 1.1mph /  1.8km/h 5mph /  8km/h 78% 0.00in /  0mm 148 W/m2
10:14 33.8 °F /  1 °C 27.6 °F /  -2.4 °C 30.06in /  1017.8hPa SW 2.1mph /  3.4km/h 7mph /  11.3km/h 78% 0.00in /  0mm 156 W/m2
10:19 34.4 °F /  1.3 °C 28.3 °F /  -2.1 °C 30.05in /  1017.5hPa SSW 1mph /  1.6km/h 7mph /  11.3km/h 78% 0.00in /  0mm 167 W/m2
10:24 35.1 °F /  1.7 °C 28.7 °F /  -1.8 °C 30.05in /  1017.5hPa SSW 1.2mph /  1.9km/h 7mph /  11.3km/h 77.3% 0.00in /  0mm 169 W/m2
10:29 35.8 °F /  2.1 °C 29.3 °F /  -1.5 °C 30.04in /  1017.2hPa SSW 1.2mph /  1.9km/h 7mph /  11.3km/h 77% 0.00in /  0mm 255 W/m2
10:34 36.6 °F /  2.6 °C 29.8 °F /  -1.2 °C 30.04in /  1017.2hPa SSW 0.9mph /  1.4km/h 7mph /  11.3km/h 76.2% 0.00in /  0mm 353 W/m2
10:39 37.6 °F /  3.1 °C 30.5 °F /  -0.8 °C 30.04in /  1017.2hPa SW 3.4mph /  5.5km/h 12mph /  19.3km/h 75.4% 0.00in /  0mm 462 W/m2
10:44 38.9 °F /  3.8 °C 31.1 °F /  -0.5 °C 30.04in /  1017.2hPa SW 4.2mph /  6.8km/h 14mph /  22.5km/h 73.2% 0.00in /  0mm 462 W/m2
10:49 40.2 °F /  4.6 °C 31.4 °F /  -0.3 °C 30.03in /  1016.8hPa SW 4.4mph /  7.1km/h 14mph /  22.5km/h 70.6% 0.00in /  0mm 508 W/m2
10:54 41 °F /  5 °C 31.4 °F /  -0.3 °C 30.03in /  1016.8hPa SSW 5.2mph /  8.4km/h 14mph /  22.5km/h 68.4% 0.00in /  0mm 499 W/m2
10:59 41.4 °F /  5.2 °C 31.3 °F /  -0.4 °C 30.02in /  1016.5hPa SW 4.6mph /  7.4km/h 16mph /  25.7km/h 67% 0.00in /  0mm 499 W/m2
11:04 41.7 °F /  5.4 °C 31.4 °F /  -0.3 °C 30.02in /  1016.5hPa SW 4.6mph /  7.4km/h 16mph /  25.7km/h 66.3% 0.00in /  0mm 417 W/m2
11:09 42.1 °F /  5.6 °C 31.3 °F /  -0.4 °C 30.01in /  1016.1hPa SSW 4.2mph /  6.8km/h 13mph /  20.9km/h 65.4% 0.00in /  0mm 316 W/m2
11:14 42.4 °F /  5.8 °C 31.2 °F /  -0.4 °C 30.01in /  1016.1hPa SSW 4.8mph /  7.7km/h 13mph /  20.9km/h 64.5% 0.00in /  0mm 387 W/m2
11:19 42.5 °F /  5.8 °C 31.2 °F /  -0.4 °C 30.01in /  1016.1hPa SSW 4.1mph /  6.6km/h 13mph /  20.9km/h 63.9% 0.00in /  0mm 466 W/m2
11:24 42.6 °F /  5.9 °C 30.9 °F /  -0.6 °C 30.00in /  1015.8hPa SSW 5.6mph /  9km/h 13mph /  20.9km/h 63% 0.00in /  0mm 366 W/m2
11:29 42.7 °F /  5.9 °C 31 °F /  -0.6 °C 30.00in /  1015.8hPa SSW 5.4mph /  8.7km/h 14mph /  22.5km/h 63% 0.00in /  0mm 246 W/m2
11:34 42.7 °F /  5.9 °C 31.1 °F /  -0.5 °C 29.99in /  1015.5hPa SSW 4.7mph /  7.6km/h 14mph /  22.5km/h 63.2% 0.00in /  0mm 297 W/m2
11:39 42.9 °F /  6.1 °C 31.2 °F /  -0.4 °C 29.99in /  1015.5hPa SSW 5.7mph /  9.2km/h 13mph /  20.9km/h 63% 0.00in /  0mm 406 W/m2
11:44 43 °F /  6.1 °C 31.3 °F /  -0.4 °C 29.99in /  1015.5hPa SSW 3.8mph /  6.1km/h 13mph /  20.9km/h 63% 0.00in /  0mm 390 W/m2
11:49 43.2 °F /  6.2 °C 31.5 °F /  -0.3 °C 29.98in /  1015.1hPa SSW 5mph /  8km/h 13mph /  20.9km/h 62.9% 0.00in /  0mm 223 W/m2
11:54 43.4 °F /  6.3 °C 31.7 °F /  -0.2 °C 29.98in /  1015.1hPa SSW 4.1mph /  6.6km/h 13mph /  20.9km/h 63% 0.00in /  0mm 376 W/m2
11:59 43.6 °F /  6.4 °C 31.8 °F /  -0.1 °C 29.98in /  1015.1hPa SW 2.9mph /  4.7km/h 13mph /  20.9km/h 63% 0.00in /  0mm 376 W/m2
12:00 43.7 °F /  6.5 °C 32 °F /  0 °C 29.98in /  1015.1hPa SSW 5mph /  8km/h 13mph /  20.9km/h 63% 0.00in /  0mm 246 W/m2
12:09 44.1 °F /  6.7 °C 32 °F /  0 °C 29.97in /  1014.8hPa SW 5.9mph /  9.5km/h 15mph /  24.1km/h 62% 0.00in /  0mm 385 W/m2
12:14 44.4 °F /  6.9 °C 31.8 °F /  -0.1 °C 29.96in /  1014.4hPa SW 5.3mph /  8.5km/h 18mph /  29km/h 61.2% 0.00in /  0mm 223 W/m2
12:19 44.3 °F /  6.8 °C 31.4 °F /  -0.3 °C 29.96in /  1014.4hPa SSW 6mph /  9.7km/h 18mph /  29km/h 60.4% 0.00in /  0mm 193 W/m2
12:24 44 °F /  6.7 °C 31.4 °F /  -0.3 °C 29.95in /  1014.1hPa South 4.2mph /  6.8km/h 18mph /  29km/h 60.8% 0.00in /  0mm 220 W/m2
12:29 44 °F /  6.7 °C 31.4 °F /  -0.3 °C 29.94in /  1013.8hPa SW 5.1mph /  8.2km/h 18mph /  29km/h 61% 0.00in /  0mm 246 W/m2
12:34 44.2 °F /  6.8 °C 31.6 °F /  -0.2 °C 29.94in /  1013.8hPa SW 2.9mph /  4.7km/h 18mph /  29km/h 61% 0.00in /  0mm 279 W/m2
12:39 44.5 °F /  6.9 °C 31.5 °F /  -0.3 °C 29.94in /  1013.8hPa SW 6.5mph /  10.5km/h 17mph /  27.4km/h 60% 0.00in /  0mm 211 W/m2
12:44 44.6 °F /  7 °C 31.4 °F /  -0.3 °C 29.94in /  1013.8hPa SW 6.4mph /  10.3km/h 17mph /  27.4km/h 59.5% 0.00in /  0mm 260 W/m2
12:49 44.8 °F /  7.1 °C 31.7 °F /  -0.2 °C 29.93in /  1013.4hPa SW 6.2mph /  10km/h 17mph /  27.4km/h 59.8% 0.00in /  0mm 313 W/m2
12:54 45.2 °F /  7.3 °C 32 °F /  0 °C 29.93in /  1013.4hPa SSW 7.5mph /  12.1km/h 18mph /  29km/h 59.7% 0.00in /  0mm 327 W/m2
12:59 45.4 °F /  7.4 °C 31.9 °F /  -0.1 °C 29.92in /  1013.1hPa SSW 5.6mph /  9km/h 19mph /  30.6km/h 58.9% 0.00in /  0mm 246 W/m2
13:04 45.5 °F /  7.5 °C 32.7 °F /  0.4 °C 29.93in /  1013.4hPa SW 5.8mph /  9.3km/h 19mph /  30.6km/h 60.7% 0.00in /  0mm 229 W/m2
13:09 45.5 °F /  7.5 °C 32.4 °F /  0.2 °C 29.93in /  1013.4hPa SW 5.3mph /  8.5km/h 14mph /  22.5km/h 59.8% 0.00in /  0mm 229 W/m2
13:14 45.6 °F /  7.6 °C 32.4 °F /  0.2 °C 29.93in /  1013.4hPa SW 4.3mph /  6.9km/h 23mph /  37km/h 59.9% 0.00in /  0mm 248 W/m2
13:19 45.7 °F /  7.6 °C 32.4 °F /  0.2 °C 29.92in /  1013.1hPa SSW 7.7mph /  12.4km/h 23mph /  37km/h 59.5% 0.00in /  0mm 243 W/m2
13:24 45.6 °F /  7.6 °C 32.4 °F /  0.2 °C 29.92in /  1013.1hPa SW 4.2mph /  6.8km/h 23mph /  37km/h 59.7% 0.00in /  0mm 209 W/m2
13:29 45.6 °F /  7.6 °C 32.6 °F /  0.3 °C 29.91in /  1012.8hPa SSW 5.5mph /  8.9km/h 23mph /  37km/h 60.1% 0.00in /  0mm 207 W/m2
13:34 45.5 °F /  7.5 °C 32.5 °F /  0.3 °C 29.91in /  1012.8hPa SSW 5.8mph /  9.3km/h 23mph /  37km/h 60.2% 0.00in /  0mm 193 W/m2
13:39 45.5 °F /  7.5 °C 32.4 °F /  0.2 °C 29.91in /  1012.8hPa SW 6.7mph /  10.8km/h 17mph /  27.4km/h 60% 0.00in /  0mm 214 W/m2
13:44 45.4 °F /  7.4 °C 32.4 °F /  0.2 °C 29.91in /  1012.8hPa SW 5.6mph /  9km/h 17mph /  27.4km/h 60.3% 0.00in /  0mm 223 W/m2
13:49 45.5 °F /  7.5 °C 33 °F /  0.6 °C 29.91in /  1012.8hPa SW 3mph /  4.8km/h 17mph /  27.4km/h 61.4% 0.00in /  0mm 250 W/m2
13:54 45.9 °F /  7.7 °C 33.4 °F /  0.8 °C 29.90in /  1012.4hPa SW 3.1mph /  5km/h 17mph /  27.4km/h 61.6% 0.00in /  0mm 306 W/m2
13:59 46.3 °F /  7.9 °C 33.3 °F /  0.7 °C 29.90in /  1012.4hPa SW 4.3mph /  6.9km/h 17mph /  27.4km/h 60.5% 0.00in /  0mm 221 W/m2
14:04 46.3 °F /  7.9 °C 33.2 °F /  0.7 °C 29.90in /  1012.4hPa SW 3.5mph /  5.6km/h 17mph /  27.4km/h 60% 0.00in /  0mm 195 W/m2
14:09 46.4 °F /  8 °C 33.3 °F /  0.7 °C 29.90in /  1012.4hPa SW 1.8mph /  2.9km/h 10mph /  16.1km/h 60% 0.00in /  0mm 230 W/m2
14:14 46.6 °F /  8.1 °C 33.2 °F /  0.7 °C 29.89in /  1012.1hPa SSW 3.5mph /  5.6km/h 11mph /  17.7km/h 59.4% 0.00in /  0mm 373 W/m2
14:19 46.8 °F /  8.2 °C 33 °F /  0.6 °C 29.89in /  1012.1hPa SW 5.4mph /  8.7km/h 21mph /  33.8km/h 58.4% 0.00in /  0mm 258 W/m2
14:24 46.8 °F /  8.2 °C 32.8 °F /  0.4 °C 29.89in /  1012.1hPa SSW 3.9mph /  6.3km/h 21mph /  33.8km/h 58% 0.00in /  0mm 230 W/m2
14:29 47 °F /  8.3 °C 32.9 °F /  0.5 °C 29.89in /  1012.1hPa SW 4.6mph /  7.4km/h 21mph /  33.8km/h 57.8% 0.00in /  0mm 227 W/m2
14:34 47.2 °F /  8.4 °C 33 °F /  0.6 °C 29.89in /  1012.1hPa SW 3.3mph /  5.3km/h 21mph /  33.8km/h 57.5% 0.00in /  0mm 135 W/m2
14:39 47.2 °F /  8.4 °C 33.1 °F /  0.6 °C 29.89in /  1012.1hPa SSW 2.5mph /  4km/h 7mph /  11.3km/h 57.7% 0.00in /  0mm 95 W/m2
14:44 47 °F /  8.3 °C 32.9 °F /  0.5 °C 29.89in /  1012.1hPa SW 3.4mph /  5.5km/h 11mph /  17.7km/h 57.8% 0.00in /  0mm 95 W/m2
14:49 46.8 °F /  8.2 °C 32.7 °F /  0.4 °C 29.89in /  1012.1hPa SSW 3.9mph /  6.3km/h 11mph /  17.7km/h 57.9% 0.00in /  0mm 104 W/m2
14:54 46.6 °F /  8.1 °C 32.6 °F /  0.3 °C 29.89in /  1012.1hPa SSW 2.3mph /  3.7km/h 11mph /  17.7km/h 58.1% 0.00in /  0mm 97 W/m2
14:59 46.5 °F /  8.1 °C 32.6 °F /  0.3 °C 29.89in /  1012.1hPa SSW 2.8mph /  4.5km/h 11mph /  17.7km/h 58.1% 0.00in /  0mm 63 W/m2
15:04 46.5 °F /  8.1 °C 32.2 °F /  0.1 °C 29.89in /  1012.1hPa SSW 2.9mph /  4.7km/h 11mph /  17.7km/h 57.2% 0.00in /  0mm 84 W/m2
15:09 46.3 °F /  7.9 °C 32 °F /  0 °C 29.88in /  1011.7hPa SSW 2.9mph /  4.7km/h 11mph /  17.7km/h 57% 0.00in /  0mm 98 W/m2
15:14 46.2 °F /  7.9 °C 31.8 °F /  -0.1 °C 29.88in /  1011.7hPa SSW 4.4mph /  7.1km/h 16mph /  25.7km/h 57% 0.00in /  0mm 84 W/m2
15:19 46.1 °F /  7.8 °C 31.6 °F /  -0.2 °C 29.88in /  1011.7hPa SSW 4mph /  6.4km/h 16mph /  25.7km/h 56.7% 0.00in /  0mm 91 W/m2
15:24 46.1 °F /  7.8 °C 31.9 °F /  -0.1 °C 29.88in /  1011.7hPa SSW 2.3mph /  3.7km/h 16mph /  25.7km/h 57.3% 0.00in /  0mm 91 W/m2
15:29 46.3 °F /  7.9 °C 32 °F /  0 °C 29.89in /  1012.1hPa SSW 3.8mph /  6.1km/h 16mph /  25.7km/h 57.3% 0.00in /  0mm 84 W/m2
15:34 46.3 °F /  7.9 °C 31.9 °F /  -0.1 °C 29.89in /  1012.1hPa SW 3.7mph /  6km/h 16mph /  25.7km/h 57% 0.00in /  0mm 44 W/m2
15:39 46.2 °F /  7.9 °C 32.1 °F /  0.1 °C 29.89in /  1012.1hPa SW 2.5mph /  4km/h 13mph /  20.9km/h 57.7% 0.00in /  0mm 42 W/m2
15:44 46 °F /  7.8 °C 32.1 °F /  0.1 °C 29.89in /  1012.1hPa SSW 1.9mph /  3.1km/h 13mph /  20.9km/h 58% 0.00in /  0mm 30 W/m2
15:49 45.8 °F /  7.7 °C 31.9 °F /  -0.1 °C 29.89in /  1012.1hPa SW 2.4mph /  3.9km/h 13mph /  20.9km/h 58.1% 0.00in /  0mm 23 W/m2
15:54 45.5 °F /  7.5 °C 32 °F /  0 °C 29.89in /  1012.1hPa SW 1.2mph /  1.9km/h 13mph /  20.9km/h 59% 0.00in /  0mm 23 W/m2
15:59 45.3 °F /  7.4 °C 32 °F /  0 °C 29.89in /  1012.1hPa SW 1.6mph /  2.6km/h 13mph /  20.9km/h 59.4% 0.00in /  0mm 25 W/m2
16:09 45 °F /  7.2 °C 32.2 °F /  0.1 °C 29.89in /  1012.1hPa SW 1.7mph /  2.7km/h 6mph /  9.7km/h 60.5% 0.00in /  0mm 30 W/m2
16:14 45 °F /  7.2 °C 32.4 °F /  0.2 °C 29.89in /  1012.1hPa SW 1mph /  1.6km/h 6mph /  9.7km/h 61% 0.00in /  0mm 26 W/m2
16:19 45 °F /  7.2 °C 32.4 °F /  0.2 °C 29.88in /  1011.7hPa SSW 0.5mph /  0.8km/h 6mph /  9.7km/h 61% 0.00in /  0mm 23 W/m2
16:24 45 °F /  7.2 °C 32.6 °F /  0.3 °C 29.88in /  1011.7hPa SSW 0.2mph /  0.3km/h 6mph /  9.7km/h 61.6% 0.00in /  0mm 21 W/m2
16:29 45 °F /  7.2 °C 32.9 °F /  0.5 °C 29.88in /  1011.7hPa SSW 1mph /  1.6km/h 6mph /  9.7km/h 62.4% 0.00in /  0mm 21 W/m2
16:34 44.9 °F /  7.2 °C 33.3 °F /  0.7 °C 29.88in /  1011.7hPa SSW 0.6mph /  1km/h 6mph /  9.7km/h 63.6% 0.00in /  0mm 14 W/m2
16:39 44.7 °F /  7.1 °C 33.5 °F /  0.8 °C 29.88in /  1011.7hPa SSW 1.3mph /  2.1km/h 4mph /  6.4km/h 64.4% 0.00in /  0mm 9 W/m2
16:44 44.6 °F /  7 °C 33.5 °F /  0.8 °C 29.88in /  1011.7hPa SSW 0.7mph /  1.1km/h 4mph /  6.4km/h 65% 0.00in /  0mm 9 W/m2
16:49 44.4 °F /  6.9 °C 33.7 °F /  0.9 °C 29.88in /  1011.7hPa SSW 0.5mph /  0.8km/h 4mph /  6.4km/h 65.9% 0.00in /  0mm 5 W/m2
16:54 44.2 °F /  6.8 °C 33.6 °F /  0.9 °C 29.88in /  1011.7hPa SSW 0.5mph /  0.8km/h 4mph /  6.4km/h 66% 0.00in /  0mm 0 W/m2
16:59 44 °F /  6.7 °C 33.7 °F /  0.9 °C 29.88in /  1011.7hPa SSW 0.7mph /  1.1km/h 4mph /  6.4km/h 66.8% 0.00in /  0mm 0 W/m2
17:04 43.8 °F /  6.6 °C 33.6 °F /  0.9 °C 29.88in /  1011.7hPa SSW 0.7mph /  1.1km/h 4mph /  6.4km/h 67.1% 0.00in /  0mm 0 W/m2
17:09 43.6 °F /  6.4 °C 33.7 °F /  0.9 °C 29.88in /  1011.7hPa SSW 1mph /  1.6km/h 4mph /  6.4km/h 67.8% 0.00in /  0mm 0 W/m2
17:14 43.5 °F /  6.4 °C 33.7 °F /  0.9 °C 29.89in /  1012.1hPa SSW 1.2mph /  1.9km/h 4mph /  6.4km/h 68% 0.00in /  0mm 0 W/m2
17:19 43.5 °F /  6.4 °C 34 °F /  1.1 °C 29.89in /  1012.1hPa SSW 0.8mph /  1.3km/h 4mph /  6.4km/h 69% 0.00in /  0mm 0 W/m2
17:24 43.4 °F /  6.3 °C 33.9 °F /  1.1 °C 29.89in /  1012.1hPa SSW 1.2mph /  1.9km/h 4mph /  6.4km/h 69% 0.00in /  0mm 0 W/m2
17:29 43.3 °F /  6.3 °C 34.1 °F /  1.2 °C 29.89in /  1012.1hPa SSW 1.2mph /  1.9km/h 4mph /  6.4km/h 70% 0.00in /  0mm 0 W/m2
17:34 43.2 °F /  6.2 °C 34.1 °F /  1.2 °C 29.89in /  1012.1hPa SSW 1.6mph /  2.6km/h 6mph /  9.7km/h 70.1% 0.00in /  0mm 0 W/m2
17:39 43.2 °F /  6.2 °C 34.5 °F /  1.4 °C 29.89in /  1012.1hPa South 2.2mph /  3.5km/h 6mph /  9.7km/h 71% 0.00in /  0mm 0 W/m2
17:44 43.2 °F /  6.2 °C 34.4 °F /  1.3 °C 29.89in /  1012.1hPa South 1.4mph /  2.3km/h 6mph /  9.7km/h 71% 0.00in /  0mm 0 W/m2
17:49 43.1 °F /  6.2 °C 34.6 °F /  1.4 °C 29.89in /  1012.1hPa South 1.4mph /  2.3km/h 6mph /  9.7km/h 71.5% 0.00in /  0mm 0 W/m2
17:54 43.1 °F /  6.2 °C 34.7 °F /  1.5 °C 29.89in /  1012.1hPa South 1.5mph /  2.4km/h 6mph /  9.7km/h 72% 0.00in /  0mm 0 W/m2
17:59 43 °F /  6.1 °C 34.6 °F /  1.4 °C 29.89in /  1012.1hPa South 1.5mph /  2.4km/h 6mph /  9.7km/h 72.2% 0.00in /  0mm 0 W/m2
18:04 42.9 °F /  6.1 °C 34.8 °F /  1.6 °C 29.89in /  1012.1hPa South 1.9mph /  3.1km/h 6mph /  9.7km/h 73% 0.00in /  0mm 0 W/m2
18:09 42.9 °F /  6.1 °C 34.8 °F /  1.6 °C 29.89in /  1012.1hPa South 1.6mph /  2.6km/h 4mph /  6.4km/h 73% 0.00in /  0mm 0 W/m2
18:14 42.8 °F /  6 °C 34.8 °F /  1.6 °C 29.89in /  1012.1hPa South 1.9mph /  3.1km/h 5mph /  8km/h 73% 0.00in /  0mm 0 W/m2
18:19 42.7 °F /  5.9 °C 34.9 °F /  1.6 °C 29.89in /  1012.1hPa South 1.8mph /  2.9km/h 5mph /  8km/h 73.6% 0.00in /  0mm 0 W/m2
18:24 42.7 °F /  5.9 °C 35 °F /  1.7 °C 29.89in /  1012.1hPa South 1.2mph /  1.9km/h 5mph /  8km/h 74% 0.00in /  0mm 0 W/m2
18:29 42.7 °F /  5.9 °C 35 °F /  1.7 °C 29.90in /  1012.4hPa South 1.7mph /  2.7km/h 5mph /  8km/h 74% 0.00in /  0mm 0 W/m2
18:34 42.7 °F /  5.9 °C 35 °F /  1.7 °C 29.90in /  1012.4hPa South 2mph /  3.2km/h 5mph /  8km/h 74% 0.00in /  0mm 0 W/m2
18:39 42.7 °F /  5.9 °C 35 °F /  1.7 °C 29.90in /  1012.4hPa South 0.8mph /  1.3km/h 4mph /  6.4km/h 74% 0.00in /  0mm 0 W/m2
18:44 42.7 °F /  5.9 °C 35.1 °F /  1.7 °C 29.90in /  1012.4hPa South 0.8mph /  1.3km/h 4mph /  6.4km/h 74.4% 0.00in /  0mm 0 W/m2
18:49 42.6 °F /  5.9 °C 35.2 °F /  1.8 °C 29.91in /  1012.8hPa South 0.3mph /  0.5km/h 4mph /  6.4km/h 75% 0.00in /  0mm 0 W/m2
18:54 42.5 °F /  5.8 °C 35.2 °F /  1.8 °C 29.91in /  1012.8hPa South 0.1mph /  0.2km/h 4mph /  6.4km/h 75% 0.00in /  0mm 0 W/m2
18:59 42.4 °F /  5.8 °C 35.1 °F /  1.7 °C 29.91in /  1012.8hPa South 0.3mph /  0.5km/h 4mph /  6.4km/h 75% 0.00in /  0mm 0 W/m2
19:04 42.4 °F /  5.8 °C 35 °F /  1.7 °C 29.91in /  1012.8hPa South 0.5mph /  0.8km/h 4mph /  6.4km/h 75% 0.00in /  0mm 0 W/m2
19:09 42.3 °F /  5.7 °C 35.2 °F /  1.8 °C 29.91in /  1012.8hPa South 0.6mph /  1km/h 3mph /  4.8km/h 75.9% 0.00in /  0mm 0 W/m2
19:14 42.3 °F /  5.7 °C 35 °F /  1.7 °C 29.91in /  1012.8hPa South 0.6mph /  1km/h 3mph /  4.8km/h 75% 0.00in /  0mm 0 W/m2
19:19 42.3 °F /  5.7 °C 34.9 °F /  1.6 °C 29.92in /  1013.1hPa South 0.2mph /  0.3km/h 3mph /  4.8km/h 75% 0.00in /  0mm 0 W/m2
19:24 42.2 °F /  5.7 °C 34.9 °F /  1.6 °C 29.92in /  1013.1hPa South 0.9mph /  1.4km/h 5mph /  8km/h 75.2% 0.00in /  0mm 0 W/m2
19:29 42.2 °F /  5.7 °C 35 °F /  1.7 °C 29.92in /  1013.1hPa South 0.3mph /  0.5km/h 5mph /  8km/h 75.5% 0.00in /  0mm 0 W/m2
19:34 42.1 °F /  5.6 °C 35.1 °F /  1.7 °C 29.92in /  1013.1hPa Calm   5mph /  8km/h 76% 0.00in /  0mm 0 W/m2
19:39 42 °F /  5.6 °C 35 °F /  1.7 °C 29.92in /  1013.1hPa South 0.1mph /  0.2km/h 1mph /  1.6km/h 76% 0.00in /  0mm 0 W/m2
19:44 41.8 °F /  5.4 °C 34.8 °F /  1.6 °C 29.92in /  1013.1hPa South 0.1mph /  0.2km/h 1mph /  1.6km/h 76% 0.00in /  0mm 0 W/m2
19:49 41.6 °F /  5.3 °C 35 °F /  1.7 °C 29.92in /  1013.1hPa Calm   1mph /  1.6km/h 77% 0.00in /  0mm 0 W/m2
19:54 41.5 °F /  5.3 °C 34.9 °F /  1.6 °C 29.92in /  1013.1hPa Calm   1mph /  1.6km/h 77% 0.00in /  0mm 0 W/m2
19:59 41.5 °F /  5.3 °C 34.8 °F /  1.6 °C 29.92in /  1013.1hPa South 0.3mph /  0.5km/h 3mph /  4.8km/h 77% 0.00in /  0mm 0 W/m2
20:09 41.3 °F /  5.2 °C 34.7 °F /  1.5 °C 29.91in /  1012.8hPa Calm     77% 0.00in /  0mm 0 W/m2
20:14 41.2 °F /  5.1 °C 34.9 °F /  1.6 °C 29.91in /  1012.8hPa South 0.3mph /  0.5km/h 2mph /  3.2km/h 77.8% 0.00in /  0mm 0 W/m2
20:19 41.1 °F /  5.1 °C 34.5 °F /  1.4 °C 29.91in /  1012.8hPa South 0.6mph /  1km/h 3mph /  4.8km/h 77% 0.00in /  0mm 0 W/m2
20:24 41 °F /  5 °C 34.4 °F /  1.3 °C 29.92in /  1013.1hPa South 1mph /  1.6km/h 3mph /  4.8km/h 77% 0.00in /  0mm 0 W/m2
20:29 41 °F /  5 °C 34.3 °F /  1.3 °C 29.92in /  1013.1hPa South 1.4mph /  2.3km/h 3mph /  4.8km/h 77% 0.00in /  0mm 0 W/m2
20:34 40.9 °F /  4.9 °C 34.3 °F /  1.3 °C 29.91in /  1012.8hPa South 1.6mph /  2.6km/h 4mph /  6.4km/h 77% 0.00in /  0mm 0 W/m2
20:39 40.9 °F /  4.9 °C 34.5 °F /  1.4 °C 29.91in /  1012.8hPa SSW 2.1mph /  3.4km/h 4mph /  6.4km/h 77.7% 0.00in /  0mm 0 W/m2
20:44 40.9 °F /  4.9 °C 34.6 °F /  1.4 °C 29.92in /  1013.1hPa SSW 1.8mph /  2.9km/h 4mph /  6.4km/h 78% 0.00in /  0mm 0 W/m2
20:49 40.9 °F /  4.9 °C 34.6 °F /  1.4 °C 29.92in /  1013.1hPa SSW 2.3mph /  3.7km/h 4mph /  6.4km/h 78% 0.00in /  0mm 0 W/m2
20:54 40.9 °F /  4.9 °C 34.6 °F /  1.4 °C 29.92in /  1013.1hPa SSW 2mph /  3.2km/h 4mph /  6.4km/h 78% 0.00in /  0mm 0 W/m2
20:59 40.9 °F /  4.9 °C 34.6 °F /  1.4 °C 29.92in /  1013.1hPa SSW 1.8mph /  2.9km/h 5mph /  8km/h 78% 0.00in /  0mm 0 W/m2
21:04 40.9 °F /  4.9 °C 34.6 °F /  1.4 °C 29.91in /  1012.8hPa SSW 0.8mph /  1.3km/h 5mph /  8km/h 78% 0.00in /  0mm 0 W/m2
21:09 40.9 °F /  4.9 °C 34.3 °F /  1.3 °C 29.92in /  1013.1hPa SSW 1.3mph /  2.1km/h 4mph /  6.4km/h 77.1% 0.00in /  0mm 0 W/m2
21:14 40.9 °F /  4.9 °C 34.3 °F /  1.3 °C 29.92in /  1013.1hPa SSW 1.6mph /  2.6km/h 4mph /  6.4km/h 77% 0.00in /  0mm 0 W/m2
21:19 40.9 °F /  4.9 °C 34.3 °F /  1.3 °C 29.92in /  1013.1hPa SSW 1.4mph /  2.3km/h 4mph /  6.4km/h 77% 0.00in /  0mm 0 W/m2
21:24 41 °F /  5 °C 34.3 °F /  1.3 °C 29.92in /  1013.1hPa SSW 1.4mph /  2.3km/h 4mph /  6.4km/h 77% 0.00in /  0mm 0 W/m2
21:29 41 °F /  5 °C 34.8 °F /  1.6 °C 29.92in /  1013.1hPa SSW 0.8mph /  1.3km/h 4mph /  6.4km/h 78.3% 0.00in /  0mm 0 W/m2
21:34 41 °F /  5 °C 34.4 °F /  1.3 °C 29.92in /  1013.1hPa SSW 0.7mph /  1.1km/h 4mph /  6.4km/h 77% 0.00in /  0mm 0 W/m2
21:39 41 °F /  5 °C 34.4 °F /  1.3 °C 29.92in /  1013.1hPa SSW 1.2mph /  1.9km/h 4mph /  6.4km/h 77% 0.00in /  0mm 0 W/m2
21:44 41 °F /  5 °C 34.3 °F /  1.3 °C 29.92in /  1013.1hPa SSW 0.7mph /  1.1km/h 4mph /  6.4km/h 77% 0.00in /  0mm 0 W/m2
21:49 40.9 °F /  4.9 °C 34.3 °F /  1.3 °C 29.92in /  1013.1hPa SSW 1.1mph /  1.8km/h 4mph /  6.4km/h 77% 0.00in /  0mm 0 W/m2
21:54 40.9 °F /  4.9 °C 34.3 °F /  1.3 °C 29.92in /  1013.1hPa SSW 0.1mph /  0.2km/h 4mph /  6.4km/h 77% 0.00in /  0mm 0 W/m2
21:59 40.8 °F /  4.9 °C 34.2 °F /  1.2 °C 29.92in /  1013.1hPa Calm   4mph /  6.4km/h 77% 0.00in /  0mm 0 W/m2
22:04 40.8 °F /  4.9 °C 34.2 °F /  1.2 °C 29.92in /  1013.1hPa SSW 0.4mph /  0.6km/h 4mph /  6.4km/h 77% 0.00in /  0mm 0 W/m2
22:09 40.9 °F /  4.9 °C 34.3 °F /  1.3 °C 29.92in /  1013.1hPa SSW 0.1mph /  0.2km/h 2mph /  3.2km/h 77% 0.00in /  0mm 0 W/m2
22:14 41 °F /  5 °C 34.9 °F /  1.6 °C 29.92in /  1013.1hPa Calm   2mph /  3.2km/h 78.6% 0.00in /  0mm 0 W/m2
22:19 41.1 °F /  5.1 °C 34.4 °F /  1.3 °C 29.92in /  1013.1hPa Calm   3mph /  4.8km/h 77% 0.00in /  0mm 0 W/m2
22:24 41 °F /  5 °C 34.4 °F /  1.3 °C 29.92in /  1013.1hPa Calm   3mph /  4.8km/h 77% 0.00in /  0mm 0 W/m2
22:29 41 °F /  5 °C 34.4 °F /  1.3 °C 29.92in /  1013.1hPa Calm   3mph /  4.8km/h 77% 0.00in /  0mm 0 W/m2
22:34 41.1 °F /  5.1 °C 34.4 °F /  1.3 °C 29.92in /  1013.1hPa Calm   3mph /  4.8km/h 77% 0.00in /  0mm 0 W/m2
22:39 41.1 °F /  5.1 °C 34.5 °F /  1.4 °C 29.91in /  1012.8hPa Calm     77% 0.00in /  0mm 0 W/m2
22:44 41.1 °F /  5.1 °C 34.4 °F /  1.3 °C 29.91in /  1012.8hPa Calm     77% 0.00in /  0mm 0 W/m2
22:49 41 °F /  5 °C 34.7 °F /  1.5 °C 29.91in /  1012.8hPa Calm     77.9% 0.00in /  0mm 0 W/m2
22:54 41.1 °F /  5.1 °C 34.8 °F /  1.6 °C 29.92in /  1013.1hPa Calm     78% 0.00in /  0mm 0 W/m2
22:59 41.1 °F /  5.1 °C 34.8 °F /  1.6 °C 29.91in /  1012.8hPa Calm     78% 0.00in /  0mm 0 W/m2
23:00 41 °F /  5 °C 34.7 °F /  1.5 °C 29.91in /  1012.8hPa Calm     78% 0.00in /  0mm 0 W/m2
23:09 41 °F /  5 °C 34.7 °F /  1.5 °C 29.91in /  1012.8hPa Calm     78% 0.00in /  0mm 0 W/m2
23:14 41.1 °F /  5.1 °C 34.7 °F /  1.5 °C 29.92in /  1013.1hPa Calm     78% 0.00in /  0mm 0 W/m2
23:19 41 °F /  5 °C 34.7 °F /  1.5 °C 29.92in /  1013.1hPa Calm     78% 0.00in /  0mm 0 W/m2
23:24 41 °F /  5 °C 34.6 °F /  1.4 °C 29.92in /  1013.1hPa Calm     78% 0.00in /  0mm 0 W/m2
23:29 40.9 °F /  4.9 °C 34.6 °F /  1.4 °C 29.92in /  1013.1hPa Calm     78% 0.00in /  0mm 0 W/m2
23:34 40.8 °F /  4.9 °C 34.5 °F /  1.4 °C 29.92in /  1013.1hPa Calm     78% 0.00in /  0mm 0 W/m2
23:39 40.7 °F /  4.8 °C 34.5 °F /  1.4 °C 29.92in /  1013.1hPa SSW 0.1mph /  0.2km/h 1mph /  1.6km/h 78.3% 0.00in /  0mm 0 W/m2
23:44 40.8 °F /  4.9 °C 34.7 °F /  1.5 °C 29.92in /  1013.1hPa Calm   1mph /  1.6km/h 78.7% 0.00in /  0mm 0 W/m2
23:49 40.9 °F /  4.9 °C 34.6 °F /  1.4 °C 29.91in /  1012.8hPa Calm   1mph /  1.6km/h 78% 0.00in /  0mm 0 W/m2
23:54 41 °F /  5 °C 34.7 °F /  1.5 °C 29.91in /  1012.8hPa Calm   1mph /  1.6km/h 78% 0.00in /  0mm 0 W/m2
23:59 41 °F /  5 °C 34.5 °F /  1.4 °C 29.91in /  1012.8hPa Calm   1mph /  1.6km/h 77.4% 0.00in /  0mm 0 W/m2
Hartford County Weather
Compliments of Weather Underground - 4 mb